Time;durP1;ratioP1;P1;durP2;ratioP2;P2;SDS_P1;SDS_P2;PMS_P1;PMS_P2;Temp;Humidity;BMP_temperature;BMP_pressure;BME280_temperature;BME280_humidity;BME280_pressure;Samples;Min_cycle;Max_cycle;Signal;HPM_P1;HPM_P2
2022/10/10 00:00:41;;;;;;;10.60;5.07;;;;;;;8.04;77.25;101441.84;5074211;28;20045;-76
2022/10/10 00:03:08;;;;;;;8.68;5.18;;;;;;;8.02;76.91;101441.81;5088968;28;20020;-76
2022/10/10 00:05:36;;;;;;;7.32;5.30;;;;;;;8.03;77.22;101434.78;5086175;28;20089;-76
2022/10/10 00:08:02;;;;;;;8.02;4.90;;;;;;;8.01;76.31;101431.25;5091273;28;20464;-76
2022/10/10 00:10:27;;;;;;;9.27;5.38;;;;;;;8.03;76.81;101432.16;5090084;28;20040;-76
2022/10/10 00:12:53;;;;;;;7.28;4.53;;;;;;;8.00;76.89;101430.41;5091722;28;20058;-76
2022/10/10 00:15:18;;;;;;;10.60;5.10;;;;;;;7.96;76.40;101431.28;5093478;28;20047;-76
2022/10/10 00:17:44;;;;;;;7.50;4.93;;;;;;;7.97;76.86;101427.78;5094852;28;20467;-76
2022/10/10 00:20:12;;;;;;;10.07;6.72;;;;;;;7.92;77.34;101425.13;5066770;28;20063;-76
2022/10/10 00:22:38;;;;;;;8.85;5.18;;;;;;;7.91;77.41;101430.41;5093480;28;20493;-76
2022/10/10 00:25:05;;;;;;;11.18;5.00;;;;;;;7.88;77.03;101423.38;5093528;28;20062;-76
2022/10/10 00:27:30;;;;;;;10.23;5.20;;;;;;;7.85;77.04;101420.75;5080617;28;20085;-76
2022/10/10 00:29:56;;;;;;;10.27;4.93;;;;;;;7.84;76.81;101423.38;5076550;28;20040;-76
2022/10/10 00:32:21;;;;;;;6.78;4.65;;;;;;;7.81;76.68;101424.25;5094644;28;20109;-76
2022/10/10 00:34:47;;;;;;;8.57;4.88;;;;;;;7.77;77.91;101419.88;5093201;28;20063;-76
2022/10/10 00:37:12;;;;;;;9.27;5.13;;;;;;;7.75;77.50;101419.88;5094387;28;20036;-76
2022/10/10 00:39:38;;;;;;;13.93;5.60;;;;;;;7.73;78.39;101424.28;5094587;28;20493;-76
2022/10/10 00:42:04;;;;;;;9.23;5.07;;;;;;;7.71;76.98;101423.38;5081297;28;20056;-76
2022/10/10 00:44:29;;;;;;;8.48;5.18;;;;;;;7.67;77.16;101426.06;5090437;28;20032;-76
2022/10/10 00:46:54;;;;;;;10.30;4.80;;;;;;;7.65;76.93;101415.50;5093763;28;20048;-76
2022/10/10 00:49:25;;;;;;;9.40;4.80;;;;;;;7.62;77.09;101414.63;5077164;28;20020;-76
2022/10/10 00:51:54;;;;;;;7.93;4.63;;;;;;;7.61;77.41;101418.13;5084454;28;20442;-76
2022/10/10 00:54:22;;;;;;;10.65;5.40;;;;;;;7.56;76.79;101407.59;5088195;28;20039;-76
2022/10/10 00:56:55;;;;;;;11.90;5.95;;;;;;;7.54;78.91;101411.97;5073876;28;20047;-76
2022/10/10 00:59:22;;;;;;;7.90;4.38;;;;;;;7.52;76.29;101411.13;5088037;28;20036;-76
2022/10/10 01:01:47;;;;;;;9.70;5.22;;;;;;;7.49;78.18;101406.72;5079493;28;20104;-76
2022/10/10 01:04:34;;;;;;;9.40;5.00;;;;;;;7.48;77.89;101404.09;5094069;28;20132;-76
2022/10/10 01:07:03;;;;;;;8.77;5.32;;;;;;;7.46;78.21;101397.94;5092858;28;20028;-76
2022/10/10 01:09:30;;;;;;;11.40;5.50;;;;;;;7.45;77.94;101404.09;5080066;28;20032;-76
2022/10/10 01:12:29;;;;;;;8.45;5.00;;;;;;;7.46;77.97;101397.94;5089701;28;20081;-76
2022/10/10 01:15:11;;;;;;;8.95;4.88;;;;;;;7.44;77.66;101402.31;5079761;28;20048;-76
2022/10/10 01:17:46;;;;;;;12.10;5.60;;;;;;;7.41;79.36;101394.41;5080267;28;20035;-76
2022/10/10 01:20:36;;;;;;;8.57;5.00;;;;;;;7.41;78.50;101389.16;5092567;28;20031;-76
2022/10/10 01:23:20;;;;;;;14.15;6.03;;;;;;;7.40;80.35;101384.78;5084090;28;20042;-76
2022/10/10 01:26:07;;;;;;;12.25;5.13;;;;;;;7.38;78.58;101392.66;5092555;28;20032;-76
2022/10/10 01:29:02;;;;;;;12.45;5.60;;;;;;;7.36;78.92;101393.53;5093764;28;20040;-76
2022/10/10 01:31:32;;;;;;;9.13;6.10;;;;;;;7.32;80.33;101392.69;5083180;28;20039;-76
2022/10/10 01:34:07;;;;;;;9.85;5.00;;;;;;;7.33;80.06;101395.28;5093556;28;20047;-76
2022/10/10 01:36:46;;;;;;;8.60;5.40;;;;;;;7.32;78.86;101393.56;5089656;28;20166;-76
2022/10/10 01:39:21;;;;;;;14.30;5.65;;;;;;;7.30;80.38;101384.75;5092112;28;20049;-76
2022/10/10 01:42:00;;;;;;;12.20;6.10;;;;;;;7.29;80.22;101387.38;5093689;28;20046;-76
2022/10/10 01:44:26;;;;;;;7.55;4.45;;;;;;;7.29;78.49;101390.03;5095717;28;20032;-76
2022/10/10 01:46:51;;;;;;;11.70;5.55;;;;;;;7.26;78.91;101380.34;5103933;28;20016;-76
2022/10/10 01:49:17;;;;;;;8.60;5.65;;;;;;;7.25;80.02;101380.38;5092827;28;20043;-76
2022/10/10 01:52:05;;;;;;;9.88;5.85;;;;;;;7.22;80.82;101378.63;5110025;28;20617;-76
2022/10/10 01:54:39;;;;;;;8.32;5.95;;;;;;;7.23;80.02;101382.13;5093204;28;20472;-76
2022/10/10 01:57:14;;;;;;;7.72;4.93;;;;;;;7.20;80.15;101368.97;5093002;28;20039;-76
2022/10/10 01:59:52;;;;;;;8.68;5.53;;;;;;;7.18;80.80;101360.19;5092776;28;20111;-76
2022/10/10 02:02:35;;;;;;;10.90;5.15;;;;;;;7.19;81.79;101359.28;5090812;28;20367;-76
2022/10/10 02:05:00;;;;;;;6.72;4.97;;;;;;;7.18;80.59;101362.81;5087380;28;20088;-76
2022/10/10 02:07:31;;;;;;;13.32;5.85;;;;;;;7.16;80.50;101367.19;5103141;28;20424;-77
2022/10/10 02:10:01;;;;;;;9.80;5.28;;;;;;;7.16;81.56;101356.66;5092717;28;20036;-77
2022/10/10 02:12:29;;;;;;;7.68;5.22;;;;;;;7.13;81.90;101354.91;5096992;28;20043;-77
2022/10/10 02:15:03;;;;;;;9.07;5.13;;;;;;;7.14;81.90;101350.50;5112741;28;20067;-77
2022/10/10 02:17:29;;;;;;;8.32;5.22;;;;;;;7.14;81.53;101342.59;5094918;28;20028;-77
2022/10/10 02:19:57;;;;;;;9.45;5.90;;;;;;;7.14;82.56;101356.63;5104647;28;20124;-77
2022/10/10 02:22:24;;;;;;;8.82;5.47;;;;;;;7.14;81.29;101353.13;5092506;28;20071;-77
2022/10/10 02:24:51;;;;;;;10.10;5.65;;;;;;;7.09;82.01;101343.47;5093515;28;20042;-77
2022/10/10 02:27:31;;;;;;;8.75;5.68;;;;;;;7.08;82.73;101347.00;5112878;27;20031;-77
2022/10/10 02:29:59;;;;;;;11.73;5.50;;;;;;;7.06;82.97;101348.75;5097216;28;20050;-77
2022/10/10 02:32:39;;;;;;;8.20;5.65;;;;;;;7.06;83.28;101343.47;5112846;28;20391;-76
2022/10/10 02:35:09;;;;;;;10.10;5.20;;;;;;;7.02;82.60;101339.09;5111429;28;20050;-77
2022/10/10 02:37:38;;;;;;;10.70;5.55;;;;;;;7.01;82.72;101339.09;5107072;28;20034;-77
2022/10/10 02:40:07;;;;;;;8.18;5.50;;;;;;;7.01;83.53;101339.09;5110707;28;20034;-77
2022/10/10 02:42:35;;;;;;;8.93;5.22;;;;;;;7.01;84.23;101332.06;5099375;28;20093;-77
2022/10/10 02:45:02;;;;;;;9.02;5.45;;;;;;;6.99;83.38;101328.53;5097511;28;20035;-77
2022/10/10 02:47:28;;;;;;;14.20;6.00;;;;;;;7.00;83.33;101327.69;5099523;28;20059;-77
2022/10/10 02:49:54;;;;;;;10.63;5.68;;;;;;;7.00;82.54;101325.06;5094179;28;20048;-77
2022/10/10 02:52:19;;;;;;;8.77;5.50;;;;;;;6.97;82.84;101322.41;5095708;28;20024;-77
2022/10/10 02:54:45;;;;;;;8.88;5.70;;;;;;;6.99;83.48;101322.41;5100685;28;20045;-77
2022/10/10 02:57:11;;;;;;;8.38;5.28;;;;;;;6.96;82.33;101314.50;5097365;28;20036;-77
2022/10/10 02:59:36;;;;;;;11.13;5.75;;;;;;;6.97;82.98;101318.88;5097366;28;20036;-77
2022/10/10 03:02:02;;;;;;;9.27;5.30;;;;;;;6.96;83.00;101307.47;5098395;28;20459;-77
2022/10/10 03:04:27;;;;;;;11.90;5.05;;;;;;;6.96;83.32;101315.38;5098707;28;20036;-77
2022/10/10 03:06:53;;;;;;;12.63;5.13;;;;;;;6.95;83.27;101305.75;5090631;28;20024;-77
2022/10/10 03:09:19;;;;;;;7.85;5.47;;;;;;;6.95;83.80;101307.47;5091950;28;20480;-77
2022/10/10 03:11:44;;;;;;;10.48;5.68;;;;;;;6.94;84.12;101306.59;5090651;28;20059;-77
2022/10/10 03:14:10;;;;;;;8.05;5.53;;;;;;;6.91;83.99;101309.25;5080147;28;20035;-77
2022/10/10 03:16:35;;;;;;;12.15;5.68;;;;;;;6.93;84.55;101309.25;5110467;28;20044;-77
2022/10/10 03:19:02;;;;;;;11.68;5.65;;;;;;;6.92;84.86;101305.72;5096712;28;20043;-77
2022/10/10 03:21:28;;;;;;;10.95;5.53;;;;;;;6.90;82.89;101299.59;5091471;28;20040;-77
2022/10/10 03:23:53;;;;;;;13.27;5.82;;;;;;;6.88;84.68;101299.59;5091848;28;20035;-77
2022/10/10 03:26:19;;;;;;;10.65;6.38;;;;;;;6.87;84.02;101295.22;5072398;28;20093;-77
2022/10/10 03:28:44;;;;;;;10.32;4.97;;;;;;;6.86;84.90;101295.19;5090484;28;20024;-77
2022/10/10 03:31:10;;;;;;;13.52;5.47;;;;;;;6.84;83.50;101304.84;5090171;28;20044;-77
2022/10/10 03:33:36;;;;;;;7.38;5.18;;;;;;;6.82;83.82;101307.47;5091746;28;20028;-77
2022/10/10 03:36:02;;;;;;;9.95;5.53;;;;;;;6.80;84.03;101303.06;5073602;28;20582;-77
2022/10/10 03:38:27;;;;;;;11.02;5.38;;;;;;;6.75;83.17;101305.72;5090218;28;20032;-77
2022/10/10 03:40:54;;;;;;;8.40;4.88;;;;;;;6.74;84.56;101308.34;5090218;28;20364;-77
2022/10/10 03:43:19;;;;;;;7.57;4.28;;;;;;;6.74;83.71;101306.59;5091356;28;20052;-77
2022/10/10 03:45:46;;;;;;;11.25;5.70;;;;;;;6.73;84.62;101307.47;5091575;28;20124;-77
2022/10/10 03:48:12;;;;;;;10.18;5.90;;;;;;;6.73;84.56;101303.97;5091889;28;20023;-77
2022/10/10 03:50:38;;;;;;;9.32;5.10;;;;;;;6.72;84.71;101316.22;5106992;28;20028;-76
2022/10/10 03:53:04;;;;;;;10.68;5.63;;;;;;;6.72;85.69;101310.09;5108279;28;20029;-76
2022/10/10 03:55:30;;;;;;;9.88;5.78;;;;;;;6.68;85.02;101315.34;5101264;28;20068;-76
2022/10/10 03:57:55;;;;;;;10.25;5.18;;;;;;;6.66;85.18;101306.56;5115865;28;20016;-76
2022/10/10 04:00:21;;;;;;;9.32;5.07;;;;;;;6.66;84.91;101306.56;5102638;28;20039;-76
2022/10/10 04:02:46;;;;;;;11.35;5.47;;;;;;;6.66;86.06;101303.06;5108799;28;20088;-76
2022/10/10 04:05:12;;;;;;;8.18;5.20;;;;;;;6.65;85.41;101311.81;5095308;28;20046;-77
2022/10/10 04:07:37;;;;;;;8.82;5.40;;;;;;;6.64;85.37;101310.09;5095175;28;20043;-77
2022/10/10 04:10:04;;;;;;;11.27;5.60;;;;;;;6.63;85.99;101298.69;5093920;28;20023;-77
2022/10/10 04:12:29;;;;;;;13.93;4.95;;;;;;;6.62;84.27;101298.66;5092663;28;20052;-77
2022/10/10 04:14:55;;;;;;;7.25;4.78;;;;;;;6.64;85.67;101296.91;5083522;28;20055;-77
2022/10/10 04:17:20;;;;;;;12.07;5.40;;;;;;;6.63;87.00;101300.44;5113767;28;20096;-77
2022/10/10 04:19:45;;;;;;;9.25;4.88;;;;;;;6.63;86.82;101295.19;5094926;28;20051;-77
2022/10/10 04:22:11;;;;;;;8.65;5.35;;;;;;;6.64;87.14;101299.56;5095028;28;20071;-77
2022/10/10 04:24:37;;;;;;;7.15;5.03;;;;;;;6.61;86.02;101305.69;5094812;28;20040;-77
2022/10/10 04:27:02;;;;;;;10.20;5.25;;;;;;;6.60;86.50;101295.16;5094926;28;20020;-77
2022/10/10 04:29:28;;;;;;;9.00;5.25;;;;;;;6.60;87.76;101297.78;5094734;28;20039;-77
2022/10/10 04:31:53;;;;;;;7.82;5.03;;;;;;;6.59;87.64;101299.53;5093383;28;20032;-77
2022/10/10 04:34:19;;;;;;;7.35;4.90;;;;;;;6.55;86.74;101292.53;5094630;28;20032;-77
2022/10/10 04:36:44;;;;;;;7.65;4.72;;;;;;;6.55;86.68;101297.81;5093128;28;20067;-77
2022/10/10 04:39:10;;;;;;;10.88;5.40;;;;;;;6.55;87.86;101297.81;5093363;28;20344;-77
2022/10/10 04:41:35;;;;;;;7.60;4.93;;;;;;;6.54;88.76;101298.66;5094364;28;20024;-76
2022/10/10 04:44:01;;;;;;;8.80;5.15;;;;;;;6.53;87.71;101298.63;5073019;28;20366;-76
2022/10/10 04:46:26;;;;;;;8.13;4.97;;;;;;;6.54;87.96;101298.66;5092635;28;20067;-76
2022/10/10 04:48:52;;;;;;;7.30;4.80;;;;;;;6.50;87.05;101296.88;5113438;28;20034;-76
2022/10/10 04:51:17;;;;;;;8.85;4.90;;;;;;;6.51;88.00;101297.78;5110886;28;20138;-76
2022/10/10 04:53:43;;;;;;;7.85;4.93;;;;;;;6.50;87.38;101298.66;5113144;28;20043;-76
2022/10/10 04:56:08;;;;;;;6.93;4.88;;;;;;;6.49;87.40;101302.16;5107038;28;20039;-76
2022/10/10 04:58:33;;;;;;;10.02;5.55;;;;;;;6.49;88.00;101300.41;5106258;28;20067;-76
2022/10/10 05:00:59;;;;;;;8.85;4.93;;;;;;;6.49;88.37;101299.53;5108558;28;20399;-76
2022/10/10 05:03:25;;;;;;;6.88;4.60;;;;;;;6.47;87.56;101294.25;5104104;28;20051;-76
2022/10/10 05:05:51;;;;;;;9.57;4.68;;;;;;;6.46;87.68;101290.75;5096583;28;20093;-76
2022/10/10 05:08:17;;;;;;;5.97;4.50;;;;;;;6.43;87.66;101279.34;5094082;28;20115;-76
2022/10/10 05:10:44;;;;;;;13.10;5.25;;;;;;;6.45;88.19;101288.09;5106698;28;20395;-76
2022/10/10 05:13:11;;;;;;;8.00;4.38;;;;;;;6.45;87.53;101288.09;5088128;28;20122;-76
2022/10/10 05:15:37;;;;;;;8.30;4.57;;;;;;;6.46;87.80;101296.00;5106288;28;20483;-76
2022/10/10 05:18:03;;;;;;;10.68;5.13;;;;;;;6.45;88.65;101278.50;5106272;28;20031;-76
2022/10/10 05:20:29;;;;;;;10.75;5.40;;;;;;;6.46;88.87;101284.63;5092673;28;20395;-76
2022/10/10 05:22:55;;;;;;;9.75;5.07;;;;;;;6.47;89.10;101286.34;5096021;28;20024;-76
2022/10/10 05:25:20;;;;;;;14.20;5.63;;;;;;;6.46;88.69;101284.63;5104406;28;20094;-76
2022/10/10 05:27:46;;;;;;;9.50;5.47;;;;;;;6.47;90.02;101286.34;5093433;28;20032;-76
2022/10/10 05:30:12;;;;;;;11.07;5.22;;;;;;;6.48;90.25;101293.41;5092259;28;20383;-76
2022/10/10 05:32:37;;;;;;;14.32;5.30;;;;;;;6.49;90.66;101294.28;5071103;28;20074;-76
2022/10/10 05:35:03;;;;;;;13.23;5.95;;;;;;;6.50;90.29;101296.00;5105023;28;20040;-76
2022/10/10 05:37:30;;;;;;;14.93;5.93;;;;;;;6.47;89.99;101292.50;5082421;28;20056;-76
2022/10/10 05:39:56;;;;;;;9.95;5.28;;;;;;;6.48;90.35;101290.75;5109996;28;20486;-76
2022/10/10 05:42:21;;;;;;;8.48;4.90;;;;;;;6.52;90.71;101296.91;5114134;28;20059;-76
2022/10/10 05:44:47;;;;;;;8.35;4.80;;;;;;;6.51;90.34;101289.91;5107923;28;20450;-76
2022/10/10 05:47:13;;;;;;;13.07;5.32;;;;;;;6.56;92.04;101299.53;5106078;28;20028;-76
2022/10/10 05:49:39;;;;;;;9.70;4.93;;;;;;;6.53;90.65;101294.28;5091816;28;20102;-76
2022/10/10 05:52:04;;;;;;;10.57;4.95;;;;;;;6.55;91.26;101291.63;5092156;28;20065;-76
2022/10/10 05:54:30;;;;;;;8.98;5.72;;;;;;;6.55;91.81;101300.44;5094898;28;20051;-76
2022/10/10 05:56:55;;;;;;;8.70;5.07;;;;;;;6.58;92.38;101303.06;5065936;28;20040;-76
2022/10/10 05:59:21;;;;;;;12.45;4.57;;;;;;;6.58;91.55;101295.16;5092709;28;20020;-76
2022/10/10 06:01:46;;;;;;;13.57;5.07;;;;;;;6.60;91.43;101292.53;5084995;28;20051;-76
2022/10/10 06:04:12;;;;;;;11.70;5.15;;;;;;;6.62;90.58;101296.03;5096311;28;20456;-76
2022/10/10 06:06:37;;;;;;;8.32;5.32;;;;;;;6.62;90.73;101296.03;5066440;28;20023;-76
2022/10/10 06:09:03;;;;;;;7.43;5.00;;;;;;;6.63;91.18;101292.56;5098704;28;20176;-76
2022/10/10 06:11:29;;;;;;;12.70;5.82;;;;;;;6.65;92.23;101296.94;5091753;28;20044;-76
2022/10/10 06:13:54;;;;;;;11.45;5.38;;;;;;;6.67;92.42;101292.53;5091158;28;20039;-76
2022/10/10 06:16:25;;;;;;;8.65;4.68;;;;;;;6.70;90.80;101298.69;5070785;28;20044;-76
2022/10/10 06:18:51;;;;;;;18.02;5.10;;;;;;;6.72;91.54;101302.19;5098208;28;20407;-76
2022/10/10 06:21:17;;;;;;;9.38;4.50;;;;;;;6.74;91.70;101296.06;5111460;28;20050;-76
2022/10/10 06:23:43;;;;;;;10.52;5.07;;;;;;;6.79;92.73;101298.69;5103752;28;20044;-76
2022/10/10 06:26:09;;;;;;;13.15;5.63;;;;;;;6.83;92.96;101311.00;5091283;28;20115;-76
2022/10/10 06:28:34;;;;;;;9.00;5.05;;;;;;;6.85;92.48;101304.84;5092521;28;20028;-76
2022/10/10 06:31:02;;;;;;;17.30;5.28;;;;;;;6.89;91.67;101305.72;5091071;28;20408;-76
2022/10/10 06:33:28;;;;;;;16.10;5.35;;;;;;;6.94;92.52;101313.63;5091054;28;20067;-76
2022/10/10 06:35:54;;;;;;;9.85;4.65;;;;;;;6.97;91.93;101314.50;5092217;28;20458;-76
2022/10/10 06:38:19;;;;;;;10.45;5.15;;;;;;;6.99;91.65;101319.78;5090755;28;20028;-76
2022/10/10 06:40:46;;;;;;;9.85;5.47;;;;;;;7.05;92.84;101314.53;5100392;28;20122;-76
2022/10/10 06:43:13;;;;;;;10.27;4.75;;;;;;;7.07;92.09;101310.09;5110887;28;20027;-76
2022/10/10 06:45:44;;;;;;;20.45;5.80;;;;;;;7.12;93.05;101313.63;5092048;28;20448;-76
2022/10/10 06:48:12;;;;;;;16.65;5.07;;;;;;;7.16;92.16;101312.75;5090737;28;20036;-76
2022/10/10 06:50:38;;;;;;;8.52;4.90;;;;;;;7.21;92.57;101312.75;5091926;28;20387;-76
2022/10/10 06:53:04;;;;;;;11.50;5.32;;;;;;;7.27;93.90;101325.91;5092175;28;20016;-76
2022/10/10 06:55:30;;;;;;;17.15;5.80;;;;;;;7.30;92.88;101320.66;5106086;28;20034;-76
2022/10/10 06:57:56;;;;;;;10.85;5.47;;;;;;;7.37;93.60;101326.78;5074070;28;20024;-76
2022/10/10 07:00:22;;;;;;;7.88;4.93;;;;;;;7.40;92.50;101317.13;5091947;28;20063;-76
2022/10/10 07:02:47;;;;;;;13.07;4.82;;;;;;;7.47;92.95;101318.00;5091686;28;20360;-76
2022/10/10 07:05:15;;;;;;;14.18;5.88;;;;;;;7.61;94.79;101321.47;5101732;28;20507;-76
2022/10/10 07:07:41;;;;;;;13.45;5.47;;;;;;;7.75;94.50;101317.06;5107584;28;20028;-76
2022/10/10 07:10:09;;;;;;;10.50;5.50;;;;;;;7.84;93.79;101308.25;5091885;28;20054;-76
2022/10/10 07:12:35;;;;;;;13.88;5.57;;;;;;;8.04;94.78;101323.13;5089313;28;20028;-76
2022/10/10 07:15:00;;;;;;;13.88;5.80;;;;;;;8.18;94.76;101313.38;5073635;28;20055;-76
2022/10/10 07:17:26;;;;;;;17.90;5.70;;;;;;;8.30;94.10;101317.75;5090429;28;20032;-76
2022/10/10 07:19:51;;;;;;;13.52;5.63;;;;;;;8.41;93.85;101315.97;5090518;28;20510;-76
2022/10/10 07:22:17;;;;;;;11.05;5.95;;;;;;;8.53;92.58;101318.53;5091689;28;20054;-76
2022/10/10 07:24:42;;;;;;;15.50;6.38;;;;;;;8.70;93.28;101326.31;5106223;28;20064;-76
2022/10/10 07:27:07;;;;;;;20.58;5.72;;;;;;;8.80;92.79;101314.84;5077883;28;20040;-75
2022/10/10 07:29:33;;;;;;;15.95;6.43;;;;;;;8.96;92.46;101323.53;5105850;28;20028;-75
2022/10/10 07:31:59;;;;;;;10.60;5.53;;;;;;;9.11;92.84;101313.72;5100223;28;20059;-74
2022/10/10 07:34:24;;;;;;;10.32;5.70;;;;;;;9.24;92.43;101318.88;5104541;28;20368;-75
2022/10/10 07:36:50;;;;;;;13.30;6.20;;;;;;;9.42;92.29;101317.88;5107799;28;20036;-74
2022/10/10 07:39:19;;;;;;;12.48;5.68;;;;;;;9.57;91.29;101326.50;5092909;28;20493;-74
2022/10/10 07:41:45;;;;;;;12.45;5.63;;;;;;;9.75;91.36;101328.97;5090346;28;20129;-75
2022/10/10 07:44:11;;;;;;;11.48;5.40;;;;;;;9.89;89.53;101339.41;5074232;28;20299;-75
2022/10/10 07:46:36;;;;;;;13.98;5.55;;;;;;;10.06;89.09;101332.16;5068721;28;20034;-75
2022/10/10 07:49:02;;;;;;;15.30;6.18;;;;;;;10.13;89.00;101351.47;5095689;28;20390;-75
2022/10/10 07:51:28;;;;;;;14.30;6.00;;;;;;;10.20;89.20;101354.94;5094289;28;20036;-75
2022/10/10 07:53:53;;;;;;;10.07;4.60;;;;;;;10.30;89.31;101360.13;5077130;28;20386;-75
2022/10/10 07:56:19;;;;;;;13.07;6.68;;;;;;;10.42;89.12;101358.22;5095387;28;20043;-75
2022/10/10 07:58:45;;;;;;;10.02;4.85;;;;;;;10.51;88.92;101355.47;5095407;28;20040;-75
2022/10/10 08:01:11;;;;;;;9.77;5.75;;;;;;;10.60;88.00;101357.97;5095233;28;20077;-75
2022/10/10 08:03:38;;;;;;;16.15;5.57;;;;;;;10.65;87.80;101360.56;5107302;28;20050;-75
2022/10/10 08:06:05;;;;;;;9.85;4.70;;;;;;;10.73;86.85;101362.22;5096222;28;20039;-75
2022/10/10 08:08:32;;;;;;;11.98;4.63;;;;;;;10.84;87.69;101367.34;5094029;28;20032;-75
2022/10/10 08:10:57;;;;;;;15.57;5.82;;;;;;;10.95;87.03;101370.72;5111143;28;20084;-75
2022/10/10 08:13:23;;;;;;;9.85;4.82;;;;;;;11.01;87.14;101367.09;5094051;28;20040;-75
2022/10/10 08:15:50;;;;;;;9.68;4.78;;;;;;;11.07;85.80;101360.81;5094868;28;20052;-75
2022/10/10 08:18:16;;;;;;;14.35;5.10;;;;;;;11.16;86.50;101360.69;5093828;28;20067;-75
2022/10/10 08:20:41;;;;;;;14.50;5.70;;;;;;;11.24;85.51;101350.81;5089268;28;20044;-75
2022/10/10 08:23:06;;;;;;;12.73;5.13;;;;;;;11.33;85.08;101355.97;5095428;28;20048;-75
2022/10/10 08:25:32;;;;;;;14.75;5.45;;;;;;;11.41;85.15;101355.84;5103839;28;20031;-75
2022/10/10 08:27:57;;;;;;;8.90;5.13;;;;;;;11.43;84.64;101361.13;5099611;28;20395;-75
2022/10/10 08:30:23;;;;;;;9.55;5.30;;;;;;;11.47;85.23;101360.16;5105354;28;20475;-75
2022/10/10 08:32:48;;;;;;;13.60;5.78;;;;;;;11.50;85.44;101361.00;5107677;28;20043;-75
2022/10/10 08:35:14;;;;;;;10.93;5.35;;;;;;;11.56;84.42;101360.00;5096461;28;20059;-75
2022/10/10 08:37:39;;;;;;;14.88;6.50;;;;;;;11.62;84.77;101362.53;5081432;28;20049;-75
2022/10/10 08:40:06;;;;;;;14.52;6.15;;;;;;;11.71;84.27;101361.50;5109063;28;20153;-75
2022/10/10 08:42:42;;;;;;;14.02;6.05;;;;;;;11.83;84.53;101361.28;5113708;28;20510;-76
2022/10/10 08:45:18;;;;;;;17.73;5.78;;;;;;;12.00;83.37;101353.03;5095748;28;20257;-75
2022/10/10 08:48:13;;;;;;;11.30;5.30;;;;;;;12.16;83.47;101362.44;5093410;28;20475;-75
2022/10/10 08:50:46;;;;;;;11.95;5.72;;;;;;;12.28;82.62;101369.28;5079879;28;20429;-75
2022/10/10 08:53:21;;;;;;;10.57;4.55;;;;;;;12.40;82.75;101363.72;5094339;28;20051;-76
2022/10/10 08:55:47;;;;;;;9.98;4.57;;;;;;;12.58;83.08;101357.13;5065006;28;20039;-75
2022/10/10 08:58:28;;;;;;;10.15;5.30;;;;;;;12.72;81.12;101354.19;5104123;28;20392;-76
2022/10/10 09:01:08;;;;;;;13.68;5.30;;;;;;;12.79;80.82;101357.59;5102853;28;20463;-76
2022/10/10 09:03:52;;;;;;;8.73;5.05;;;;;;;12.96;80.83;101363.38;5094211;28;20062;-76
2022/10/10 09:06:18;;;;;;;11.70;4.32;;;;;;;13.16;80.57;101362.03;5078352;28;20038;-76
2022/10/10 09:08:52;;;;;;;9.80;5.43;;;;;;;13.32;80.21;101368.75;5106042;28;20026;-75
2022/10/10 09:11:30;;;;;;;13.07;5.15;;;;;;;13.43;80.20;101366.69;5092796;28;20044;-76
2022/10/10 09:14:23;;;;;;;9.13;4.80;;;;;;;13.44;77.71;101372.88;5092618;28;20161;-76
2022/10/10 09:16:59;;;;;;;13.35;4.90;;;;;;;13.47;77.72;101371.00;5088995;28;20074;-76
2022/10/10 09:19:35;;;;;;;19.60;5.25;;;;;;;13.58;78.46;101376.09;5093796;28;20032;-76
2022/10/10 09:22:05;;;;;;;10.52;4.53;;;;;;;13.82;78.22;101379.84;5092580;28;20490;-76
2022/10/10 09:24:46;;;;;;;9.38;4.38;;;;;;;13.97;75.86;101375.91;5093477;28;20043;-76
2022/10/10 09:27:15;;;;;;;;;;;;;;;14.06;76.75;101373.00;5093002;28;20032;-76
2022/10/10 09:30:04;;;;;;;13.35;4.55;;;;;;;14.25;76.29;101377.81;5093317;28;19912;-76
2022/10/10 09:32:37;;;;;;;11.85;4.13;;;;;;;14.33;75.95;101383.81;5081711;28;20135;-76
2022/10/10 09:35:23;;;;;;;10.70;4.40;;;;;;;14.42;74.88;101380.88;5097887;28;20115;-76
2022/10/10 09:37:56;;;;;;;12.07;4.22;;;;;;;14.54;76.22;101379.66;5099083;28;20036;-76
2022/10/10 09:40:27;;;;;;;11.40;4.55;;;;;;;14.61;73.75;101390.13;5079287;28;20039;-76
2022/10/10 09:42:53;;;;;;;13.10;4.03;;;;;;;14.66;74.25;101394.41;5092149;28;20525;-76
2022/10/10 09:45:47;;;;;;;7.55;3.65;;;;;;;14.70;74.72;101393.41;5097921;28;20031;-76
2022/10/10 09:48:12;;;;;;;10.45;4.07;;;;;;;14.77;73.88;101395.84;5109223;28;20044;-76
2022/10/10 09:50:38;;;;;;;16.58;4.22;;;;;;;14.77;71.95;101398.50;5088616;28;20032;-76
2022/10/10 09:53:04;;;;;;;14.48;4.45;;;;;;;14.76;71.90;101399.44;5100507;28;20471;-76
2022/10/10 09:55:38;;;;;;;8.80;4.38;;;;;;;14.81;72.84;101409.94;5082670;28;20029;-76
2022/10/10 09:58:14;;;;;;;10.70;4.18;;;;;;;14.83;71.74;101397.44;5091643;28;20081;-75
2022/10/10 10:00:40;;;;;;;10.13;3.90;;;;;;;14.81;72.45;101407.28;5092855;28;20459;-74
2022/10/10 10:03:14;;;;;;;9.65;4.00;;;;;;;14.84;73.01;101413.41;5091468;28;20040;-76
2022/10/10 10:09:14;;;;;;;7.13;4.10;;;;;;;14.86;70.95;101415.13;5107631;28;20085;-75
2022/10/10 10:11:40;;;;;;;8.52;4.18;;;;;;;14.84;70.93;101400.06;5103999;28;20504;-75
2022/10/10 10:14:12;;;;;;;10.52;3.80;;;;;;;14.84;71.51;101400.06;5095570;28;20107;-76
2022/10/10 10:16:39;;;;;;;11.82;4.22;;;;;;;14.87;71.12;101399.09;5066508;28;20059;-76
2022/10/10 10:19:24;;;;;;;11.02;4.38;;;;;;;14.87;71.28;101407.09;5093343;28;20086;-75
2022/10/10 10:21:51;;;;;;;12.30;4.38;;;;;;;14.86;71.75;101417.81;5087143;28;20360;-76
2022/10/10 10:24:23;;;;;;;10.18;4.65;;;;;;;14.84;72.30;101416.06;5076870;28;20040;-76
2022/10/10 10:26:50;;;;;;;9.57;4.18;;;;;;;14.87;72.08;101411.56;5087639;28;20024;-76
2022/10/10 10:29:30;;;;;;;12.88;5.15;;;;;;;14.97;72.40;101410.38;5090731;28;20032;-76
2022/10/10 10:32:01;;;;;;;12.95;4.55;;;;;;;15.41;72.32;101413.41;5093624;28;20036;-75
2022/10/10 10:34:46;;;;;;;15.10;4.63;;;;;;;15.89;70.36;101412.69;5087902;28;20127;-76
2022/10/10 10:37:20;;;;;;;10.73;4.35;;;;;;;16.05;69.33;101421.06;5094403;28;20024;-81
2022/10/10 10:40:10;;;;;;;11.80;4.60;;;;;;;16.18;68.54;101424.16;5082868;28;20213;-76
2022/10/10 10:43:03;;;;;;;11.55;4.28;;;;;;;16.29;68.85;101413.94;5088350;28;20082;-76
2022/10/10 10:45:57;;;;;;;14.20;4.30;;;;;;;16.26;68.17;101425.63;5083940;28;20024;-76
2022/10/10 10:48:38;;;;;;;15.00;5.05;;;;;;;16.09;66.91;101428.88;5085841;28;20127;-75
2022/10/10 10:51:12;;;;;;;10.63;3.95;;;;;;;16.03;66.82;101441.59;5086207;28;20035;-75
2022/10/10 10:53:52;;;;;;;13.55;4.10;;;;;;;16.18;67.80;101443.72;5084752;28;20051;-76
2022/10/10 10:56:29;;;;;;;16.05;4.88;;;;;;;16.31;66.66;101439.69;5080135;28;20036;-75
2022/10/10 10:59:29;;;;;;;12.05;4.00;;;;;;;16.72;65.77;101442.63;5086896;28;20092;-75
2022/10/10 11:01:58;;;;;;;15.15;4.28;;;;;;;16.83;65.24;101449.41;5087290;28;20028;-74
2022/10/10 11:04:50;;;;;;;12.13;4.38;;;;;;;16.79;65.12;101450.44;5096554;28;20035;-75
2022/10/10 11:07:25;;;;;;;20.00;4.80;;;;;;;16.70;65.12;101451.66;5072962;28;20128;-76
2022/10/10 11:10:03;;;;;;;10.20;4.40;;;;;;;16.61;64.98;101443.97;5088374;28;20400;-78
2022/10/10 11:12:50;;;;;;;12.48;4.10;;;;;;;16.68;65.35;101453.50;5089313;28;20035;-76
2022/10/10 11:15:31;;;;;;;11.02;4.20;;;;;;;16.78;64.48;101460.28;5084580;28;20135;-75
2022/10/10 11:18:00;;;;;;;10.80;3.97;;;;;;;17.07;64.37;101461.84;5087122;28;20040;-76
2022/10/10 11:20:43;;;;;;;13.50;4.72;;;;;;;17.32;64.20;101471.56;5088890;28;20082;-77
2022/10/10 11:23:16;;;;;;;15.90;4.50;;;;;;;17.58;63.34;101471.41;5088471;28;20028;-74
2022/10/10 11:25:47;;;;;;;12.65;5.60;;;;;;;17.83;61.93;101471.28;5088683;28;20039;-74
2022/10/10 11:28:29;;;;;;;16.80;4.88;;;;;;;17.97;62.77;101459.94;5088282;28;20038;-75
2022/10/10 11:31:04;;;;;;;18.75;4.60;;;;;;;18.31;62.05;101453.13;5084644;28;20429;-75
2022/10/10 11:33:35;;;;;;;10.10;3.80;;;;;;;18.51;61.12;101457.59;5089498;28;20031;-75
2022/10/10 11:36:05;;;;;;;;;;;;;;;18.80;61.77;101448.25;5090940;28;20105;-75
2022/10/10 11:38:33;;;;;;;9.03;3.80;;;;;;;19.14;59.19;101446.66;5090667;28;19923;-75
2022/10/10 11:41:16;;;;;;;11.00;4.50;;;;;;;19.30;58.84;101447.66;5090368;28;20104;-75